createdAt,value
2019-05-21T00:01:14.639Z,23.77
2019-05-21T00:03:43.242Z,24.70
2019-05-21T00:06:11.832Z,28.17
2019-05-21T00:08:40.422Z,24.25
2019-05-21T00:11:08.963Z,25.12
2019-05-21T00:13:38.689Z,24.67
2019-05-21T00:16:07.226Z,24.27
2019-05-21T00:18:39.194Z,25.25
2019-05-21T00:21:07.817Z,23.75
2019-05-21T00:23:36.404Z,24.60
2019-05-21T00:26:04.986Z,24.72
2019-05-21T00:28:36.996Z,23.50
2019-05-21T00:31:41.905Z,24.70
2019-05-21T00:34:46.499Z,24.43
2019-05-21T00:37:51.396Z,23.22
2019-05-21T00:40:56.116Z,24.75
2019-05-21T00:43:30.716Z,23.92
2019-05-21T00:45:59.362Z,23.30
2019-05-21T00:48:27.943Z,23.07
2019-05-21T00:50:56.551Z,21.30
2019-05-21T00:53:25.181Z,22.93
2019-05-21T00:55:53.747Z,21.85
2019-05-21T00:58:22.332Z,22.55
2019-05-21T01:00:51.303Z,22.75
2019-05-21T01:03:19.876Z,22.67
2019-05-21T01:05:48.473Z,20.52
2019-05-21T01:08:17.030Z,20.85
2019-05-21T01:10:45.518Z,19.55
2019-05-21T01:13:14.019Z,19.85
2019-05-21T01:15:42.503Z,18.98
2019-05-21T01:18:13.063Z,18.12
2019-05-21T01:20:41.620Z,18.50
2019-05-21T01:23:10.140Z,18.27
2019-05-21T01:25:41.449Z,18.77
2019-05-21T01:28:11.157Z,18.57
2019-05-21T01:30:39.772Z,18.90
2019-05-21T01:33:09.156Z,18.77
2019-05-21T01:35:37.788Z,17.85
2019-05-21T01:38:06.349Z,17.20
2019-05-21T01:40:34.819Z,17.23
2019-05-21T01:43:04.352Z,18.30
2019-05-21T01:45:32.890Z,18.17
2019-05-21T01:48:01.408Z,18.70
2019-05-21T01:50:30.007Z,18.87
2019-05-21T01:52:58.568Z,18.42
2019-05-21T01:55:27.169Z,19.82
2019-05-21T01:57:55.734Z,18.95
2019-05-21T02:00:24.293Z,19.40
2019-05-21T02:02:52.888Z,19.02
2019-05-21T02:05:32.702Z,19.45
2019-05-21T02:07:51.915Z,18.20
2019-05-21T02:10:20.423Z,18.75
2019-05-21T02:12:48.920Z,18.45
2019-05-21T02:15:17.565Z,18.70
2019-05-21T02:17:46.145Z,19.05
2019-05-21T02:20:14.972Z,20.17
2019-05-21T02:22:43.553Z,19.75
2019-05-21T02:25:12.759Z,20.23
2019-05-21T02:27:41.437Z,19.40
2019-05-21T02:30:11.788Z,19.37
2019-05-21T02:32:40.313Z,19.20
2019-05-21T02:35:08.863Z,19.50
2019-05-21T02:37:37.360Z,19.35
2019-05-21T02:40:06.060Z,19.17
2019-05-21T02:42:34.625Z,18.48
2019-05-21T02:45:03.346Z,19.70
2019-05-21T02:47:31.900Z,19.87
2019-05-21T02:50:00.520Z,18.82
2019-05-21T02:52:29.128Z,19.60
2019-05-21T02:54:57.718Z,19.40
2019-05-21T02:57:40.091Z,18.40
2019-05-21T03:00:24.343Z,18.80
2019-05-21T03:02:52.916Z,17.10
2019-05-21T03:05:21.381Z,18.05
2019-05-21T03:07:49.910Z,17.77
2019-05-21T03:10:19.005Z,19.63
2019-05-21T03:12:47.573Z,19.52
2019-05-21T03:15:16.193Z,19.02
2019-05-21T03:17:44.742Z,19.85
2019-05-21T03:20:13.525Z,19.73
2019-05-21T03:22:42.107Z,19.77
2019-05-21T03:25:10.829Z,21.00
2019-05-21T03:27:39.379Z,20.62
2019-05-21T03:30:09.720Z,21.02
2019-05-21T03:32:39.517Z,22.60
2019-05-21T03:35:10.223Z,23.00
2019-05-21T03:37:38.733Z,22.27
2019-05-21T03:40:08.019Z,24.12
2019-05-21T03:42:36.596Z,24.43
2019-05-21T03:45:08.585Z,25.20
2019-05-21T03:47:37.276Z,25.32
2019-05-21T03:50:06.354Z,24.63
2019-05-21T03:52:35.158Z,24.72
2019-05-21T03:55:04.193Z,23.57
2019-05-21T03:57:33.055Z,24.18
2019-05-21T04:00:02.738Z,24.55
2019-05-21T04:02:31.807Z,24.05
2019-05-21T04:05:00.705Z,22.93
2019-05-21T04:07:29.283Z,21.95
2019-05-21T04:09:58.544Z,24.10
2019-05-21T04:12:27.130Z,24.18
2019-05-21T04:14:57.388Z,23.65
2019-05-21T04:17:36.345Z,21.75
2019-05-21T04:20:06.401Z,20.95
2019-05-21T04:22:36.642Z,22.65
2019-05-21T04:25:06.377Z,22.65
2019-05-21T04:27:34.953Z,23.20
2019-05-21T04:30:04.739Z,23.35
2019-05-21T04:32:33.814Z,23.52
2019-05-21T04:35:02.655Z,28.27
2019-05-21T04:37:31.219Z,23.83
2019-05-21T04:40:00.950Z,24.95
2019-05-21T04:42:29.527Z,23.55
2019-05-21T04:45:00.491Z,23.65
2019-05-21T04:47:29.079Z,23.57
2019-05-21T04:52:30.418Z,23.80
2019-05-21T04:54:58.945Z,23.65
2019-05-21T04:57:27.533Z,25.30
2019-05-21T04:59:56.113Z,23.35
2019-05-21T05:02:24.689Z,24.87
2019-05-21T05:04:53.300Z,24.35
2019-05-21T05:07:28.233Z,21.62
2019-05-21T05:09:52.101Z,22.17
2019-05-21T05:12:20.604Z,21.10
2019-05-21T05:14:49.825Z,21.10
2019-05-21T05:17:18.386Z,21.42
2019-05-21T05:19:46.883Z,21.87
2019-05-21T05:22:15.375Z,22.27
2019-05-21T05:24:45.084Z,21.90
2019-05-21T05:27:13.579Z,22.82
2019-05-21T05:29:42.171Z,22.17
2019-05-21T05:32:10.768Z,21.27
2019-05-21T05:34:40.387Z,21.05
2019-05-21T05:37:08.964Z,22.17
2019-05-21T05:39:37.544Z,21.12
2019-05-21T05:42:06.026Z,22.75
2019-05-21T05:44:34.568Z,21.30
2019-05-21T05:47:04.111Z,21.27
2019-05-21T05:49:35.706Z,21.17
2019-05-21T05:52:04.308Z,22.40
2019-05-21T05:54:32.914Z,22.35
2019-05-21T05:57:01.459Z,21.55
2019-05-21T05:59:30.040Z,22.90
2019-05-21T06:01:58.609Z,23.10
2019-05-21T06:04:30.430Z,23.50
2019-05-21T06:06:57.383Z,24.92
2019-05-21T06:09:27.496Z,23.95
2019-05-21T06:11:56.096Z,23.73
2019-05-21T06:14:24.655Z,25.50
2019-05-21T06:16:53.266Z,24.85
2019-05-21T06:19:21.808Z,28.35
2019-05-21T06:21:50.343Z,32.53
2019-05-21T06:24:19.040Z,32.23
2019-05-21T06:26:47.629Z,32.67
2019-05-21T06:29:16.218Z,33.75
2019-05-21T06:31:45.765Z,32.50
2019-05-21T06:34:17.135Z,31.52
2019-05-21T06:36:45.871Z,31.35
2019-05-21T06:39:16.352Z,31.70
2019-05-21T06:41:45.551Z,26.82
2019-05-21T06:44:15.441Z,28.60
2019-05-21T06:46:45.952Z,32.05
2019-05-21T06:49:16.156Z,31.65
2019-05-21T06:51:44.855Z,33.05
2019-05-21T06:54:13.437Z,34.25
2019-05-21T06:56:42.033Z,35.50
2019-05-21T06:59:12.150Z,36.42
2019-05-21T07:01:52.635Z,37.40
2019-05-21T07:04:21.324Z,38.08
2019-05-21T07:06:51.459Z,35.75
2019-05-21T07:09:20.918Z,31.77
2019-05-21T07:11:50.058Z,29.20
2019-05-21T07:14:19.919Z,29.92
2019-05-21T07:16:50.118Z,30.32
2019-05-21T07:19:19.726Z,27.27
2019-05-21T07:21:49.212Z,29.75
2019-05-21T07:24:19.413Z,27.80
2019-05-21T07:26:49.655Z,40.10
2019-05-21T07:29:18.357Z,30.45
2019-05-21T07:31:46.927Z,30.15
2019-05-21T07:34:15.620Z,29.20
2019-05-21T07:36:44.544Z,30.10
2019-05-21T07:39:13.133Z,30.07
2019-05-21T07:41:44.307Z,29.18
2019-05-21T07:44:13.431Z,29.85
2019-05-21T07:46:43.624Z,29.60
2019-05-21T07:49:12.252Z,31.48
2019-05-21T07:51:42.355Z,32.85
2019-05-21T07:54:11.202Z,29.30
2019-05-21T07:56:39.798Z,27.82
2019-05-21T07:59:08.515Z,28.05
2019-05-21T08:01:38.659Z,28.30
2019-05-21T08:04:07.278Z,29.72
2019-05-21T08:06:35.851Z,31.33
2019-05-21T08:09:13.342Z,30.32
2019-05-21T08:11:38.673Z,28.27
2019-05-21T08:14:08.827Z,28.30
2019-05-21T08:16:37.395Z,28.77
2019-05-21T08:19:05.982Z,29.52
2019-05-21T08:21:34.491Z,30.52
2019-05-21T08:24:04.699Z,26.27
2019-05-21T08:26:33.366Z,27.73
2019-05-21T08:29:01.890Z,24.95
2019-05-21T08:31:31.086Z,25.68
2019-05-21T08:34:01.077Z,27.87
2019-05-21T08:36:29.685Z,27.55
2019-05-21T08:38:58.373Z,27.60
2019-05-21T08:41:29.771Z,26.15
2019-05-21T08:43:58.601Z,27.10
2019-05-21T08:46:27.188Z,26.73
2019-05-21T08:48:58.089Z,25.77
2019-05-21T08:51:26.670Z,26.77
2019-05-21T08:53:55.242Z,28.98
2019-05-21T08:56:26.315Z,27.25
2019-05-21T08:58:54.882Z,27.30
2019-05-21T09:01:23.549Z,27.77
2019-05-21T09:03:52.075Z,28.80
2019-05-21T09:06:20.729Z,38.40
2019-05-21T09:08:49.347Z,26.12
2019-05-21T09:11:17.898Z,26.27
2019-05-21T09:13:46.495Z,28.23
2019-05-21T09:16:15.079Z,26.77
2019-05-21T09:18:43.675Z,27.40
2019-05-21T09:21:13.943Z,28.02
2019-05-21T09:23:42.639Z,27.32
2019-05-21T09:26:11.228Z,24.90
2019-05-21T09:28:40.659Z,26.65
2019-05-21T09:31:09.319Z,25.95
2019-05-21T09:33:37.800Z,24.95
2019-05-21T09:36:06.315Z,25.73
2019-05-21T09:38:34.875Z,25.00
2019-05-21T09:41:03.475Z,24.57
2019-05-21T09:43:33.222Z,23.30
2019-05-21T09:46:01.790Z,21.82
2019-05-21T09:48:31.366Z,21.10
2019-05-21T09:50:59.918Z,21.37
2019-05-21T09:53:28.546Z,23.20
2019-05-21T09:55:58.740Z,22.15
2019-05-21T09:58:29.209Z,20.97
2019-05-21T10:01:05.419Z,21.70
2019-05-21T10:03:36.634Z,21.12
2019-05-21T10:06:05.323Z,20.72
2019-05-21T10:08:37.130Z,20.97
2019-05-21T10:11:04.863Z,22.00
2019-05-21T10:13:33.503Z,20.52
2019-05-21T10:16:06.234Z,20.02
2019-05-21T10:18:35.181Z,19.25
2019-05-21T10:21:03.973Z,20.45
2019-05-21T10:23:32.554Z,22.65
2019-05-21T10:26:01.035Z,23.02
2019-05-21T10:28:29.650Z,21.85
2019-05-21T10:30:58.163Z,18.95
2019-05-21T10:33:26.721Z,20.90
2019-05-21T10:35:56.151Z,20.57
2019-05-21T10:38:26.010Z,19.55
2019-05-21T10:40:54.677Z,20.52
2019-05-21T10:43:25.702Z,19.62
2019-05-21T10:45:54.207Z,21.30
2019-05-21T10:48:24.062Z,20.60
2019-05-21T10:50:53.183Z,20.55
2019-05-21T10:53:22.277Z,19.30
2019-05-21T10:55:52.218Z,19.75
2019-05-21T10:58:22.527Z,18.48
2019-05-21T11:00:52.773Z,18.62
2019-05-21T11:03:24.015Z,19.05
2019-05-21T11:06:09.590Z,19.17
2019-05-21T11:08:27.738Z,18.98
2019-05-21T11:10:57.365Z,19.12
2019-05-21T11:13:26.020Z,17.15
2019-05-21T11:15:54.623Z,15.75
2019-05-21T11:18:23.198Z,16.07
2019-05-21T11:20:51.957Z,18.62
2019-05-21T11:23:20.521Z,16.20
2019-05-21T11:25:49.139Z,15.10
2019-05-21T11:28:19.287Z,12.60
2019-05-21T11:30:47.825Z,14.75
2019-05-21T11:33:16.732Z,17.55
2019-05-21T11:35:47.649Z,16.77
2019-05-21T11:38:16.748Z,15.80
2019-05-21T11:40:50.784Z,14.83
2019-05-21T11:43:17.482Z,16.45
2019-05-21T11:45:46.079Z,14.23
2019-05-21T11:48:14.772Z,13.05
2019-05-21T11:50:44.930Z,14.23
2019-05-21T11:53:15.245Z,12.70
2019-05-21T11:55:45.242Z,11.60
2019-05-21T11:58:13.865Z,55.70
2019-05-21T12:00:42.499Z,12.55
2019-05-21T12:03:11.086Z,13.28
2019-05-21T12:05:39.678Z,11.50
2019-05-21T12:08:08.218Z,11.08
2019-05-21T12:10:37.823Z,10.23
2019-05-21T12:13:07.961Z,10.45
2019-05-21T12:15:36.709Z,10.93
2019-05-21T12:18:06.862Z,12.13
2019-05-21T12:20:37.597Z,11.75
2019-05-21T12:23:08.254Z,11.70
2019-05-21T12:25:36.892Z,12.07
2019-05-21T12:28:05.459Z,11.30
2019-05-21T12:30:34.140Z,11.05
2019-05-21T12:33:02.726Z,13.28
2019-05-21T12:35:31.286Z,8.68
2019-05-21T12:38:00.249Z,9.78
2019-05-21T12:40:30.535Z,6.55
2019-05-21T12:42:59.133Z,6.53
2019-05-21T12:45:27.762Z,6.58
2019-05-21T12:47:56.332Z,6.50
2019-05-21T12:50:27.588Z,6.37
2019-05-21T12:52:56.181Z,7.00
2019-05-21T12:55:25.263Z,6.67
2019-05-21T12:57:56.104Z,6.92
2019-05-21T13:00:30.948Z,8.80
2019-05-21T13:03:00.561Z,14.28
2019-05-21T13:05:29.080Z,12.63
2019-05-21T13:07:57.996Z,8.75
2019-05-21T13:10:27.149Z,10.08
2019-05-21T13:12:55.837Z,10.30
2019-05-21T13:15:24.585Z,10.50
2019-05-21T13:17:53.175Z,10.18
2019-05-21T13:20:22.403Z,10.90
2019-05-21T13:22:52.405Z,9.75
2019-05-21T13:25:20.956Z,12.35
2019-05-21T13:27:49.527Z,9.08
2019-05-21T13:30:20.708Z,9.15
2019-05-21T13:32:49.874Z,10.00
2019-05-21T13:35:18.440Z,11.20
2019-05-21T13:37:46.951Z,9.63
2019-05-21T13:40:17.815Z,9.88
2019-05-21T13:42:46.379Z,9.55
2019-05-21T13:45:18.347Z,9.60
2019-05-21T13:47:48.694Z,9.63
2019-05-21T13:50:17.560Z,9.20
2019-05-21T13:52:46.144Z,6.20
2019-05-21T13:55:14.829Z,6.75
2019-05-21T13:57:43.375Z,8.18
2019-05-21T14:00:14.778Z,6.70
2019-05-21T14:02:43.493Z,5.33
2019-05-21T14:05:13.517Z,6.65
2019-05-21T14:07:42.210Z,4.90
2019-05-21T14:10:15.788Z,4.83
2019-05-21T14:12:41.378Z,5.25
2019-05-21T14:15:10.282Z,5.55
2019-05-21T14:17:38.826Z,4.72
2019-05-21T14:20:08.377Z,4.90
2019-05-21T14:22:36.957Z,5.83
2019-05-21T14:25:09.350Z,5.90
2019-05-21T14:27:44.341Z,6.03
2019-05-21T14:30:10.337Z,5.50
2019-05-21T14:32:40.817Z,5.67
2019-05-21T14:35:09.411Z,4.95
2019-05-21T14:37:37.974Z,6.28
2019-05-21T14:40:08.546Z,7.75
2019-05-21T14:42:37.135Z,6.83
2019-05-21T14:45:06.744Z,5.53
2019-05-21T14:47:35.337Z,6.08
2019-05-21T14:50:06.347Z,9.45
2019-05-21T14:52:34.982Z,12.28
2019-05-21T14:55:07.895Z,12.00
2019-05-21T14:57:36.766Z,11.70
2019-05-21T15:00:13.571Z,12.25
2019-05-21T15:02:42.519Z,12.53
2019-05-21T15:05:11.555Z,10.60
2019-05-21T15:07:40.151Z,10.28
2019-05-21T15:10:09.139Z,11.22
2019-05-21T15:12:37.828Z,11.78
2019-05-21T15:15:07.321Z,9.88
2019-05-21T15:17:35.936Z,10.45
2019-05-21T15:20:08.280Z,10.10
2019-05-21T15:22:36.882Z,10.48
2019-05-21T15:25:07.213Z,11.30
2019-05-21T15:27:35.812Z,11.80
2019-05-21T15:30:06.111Z,11.35
2019-05-21T15:32:35.045Z,10.48
2019-05-21T15:35:04.436Z,10.05
2019-05-21T15:37:32.993Z,10.00
2019-05-21T15:40:01.633Z,14.75
2019-05-21T15:42:30.411Z,8.95
2019-05-21T15:44:58.928Z,8.78
2019-05-21T15:47:27.510Z,8.85
2019-05-21T15:49:56.703Z,8.55
2019-05-21T15:52:25.408Z,9.35
2019-05-21T15:54:54.015Z,8.60
2019-05-21T15:57:24.105Z,9.63
2019-05-21T15:59:52.672Z,8.08
2019-05-21T16:02:21.322Z,6.60
2019-05-21T16:04:50.209Z,6.90
2019-05-21T16:07:18.893Z,6.35
2019-05-21T16:09:47.453Z,6.10
2019-05-21T16:12:16.390Z,6.80
2019-05-21T16:14:44.984Z,6.47
2019-05-21T16:17:15.757Z,6.42
2019-05-21T16:19:46.361Z,7.17
2019-05-21T16:22:15.749Z,14.40
2019-05-21T16:24:45.567Z,6.75
2019-05-21T16:27:14.285Z,7.12
2019-05-21T16:29:42.779Z,8.03
2019-05-21T16:32:13.350Z,9.10
2019-05-21T16:34:41.862Z,8.95
2019-05-21T16:37:12.372Z,8.88
2019-05-21T16:39:40.959Z,9.28
2019-05-21T16:42:09.575Z,8.83
2019-05-21T16:44:38.158Z,9.83
2019-05-21T16:47:06.766Z,12.25
2019-05-21T16:49:35.336Z,10.70
2019-05-21T16:52:03.937Z,12.05
2019-05-21T16:54:33.563Z,12.37
2019-05-21T16:57:02.242Z,12.20
2019-05-21T16:59:33.048Z,12.15
2019-05-21T17:02:04.609Z,12.82
2019-05-21T17:04:33.201Z,12.15
2019-05-21T17:07:01.790Z,13.10
2019-05-21T17:09:31.492Z,10.50
2019-05-21T17:12:02.799Z,10.38
2019-05-21T17:14:32.954Z,11.03
2019-05-21T17:17:02.832Z,9.20
2019-05-21T17:19:31.396Z,9.20
2019-05-21T17:21:59.891Z,9.45
2019-05-21T17:24:28.553Z,9.63
2019-05-21T17:26:57.047Z,10.25
2019-05-21T17:29:25.640Z,10.70
2019-05-21T17:31:55.968Z,10.28
2019-05-21T17:34:24.540Z,10.03
2019-05-21T17:36:54.687Z,10.45
2019-05-21T17:39:23.179Z,11.22
2019-05-21T17:41:52.675Z,10.48
2019-05-21T17:44:26.642Z,21.90
2019-05-21T17:46:55.788Z,9.15
2019-05-21T17:49:24.469Z,9.70
2019-05-21T17:51:53.294Z,10.27
2019-05-21T17:54:21.806Z,8.40
2019-05-21T17:56:50.719Z,8.15
2019-05-21T17:59:20.477Z,7.58
2019-05-21T18:01:50.665Z,8.18
2019-05-21T18:04:19.996Z,7.03
2019-05-21T18:06:48.588Z,6.62
2019-05-21T18:09:19.229Z,6.55
2019-05-21T18:11:57.307Z,6.78
2019-05-21T18:14:25.976Z,6.80
2019-05-21T18:16:56.338Z,11.70
2019-05-21T18:19:25.068Z,6.70
2019-05-21T18:21:53.616Z,8.08
2019-05-21T18:24:24.055Z,6.70
2019-05-21T18:26:52.678Z,7.28
2019-05-21T18:29:21.498Z,7.00
2019-05-21T18:31:51.541Z,5.72
2019-05-21T18:34:20.185Z,6.12
2019-05-21T18:36:49.299Z,6.28
2019-05-21T18:39:18.642Z,6.62
2019-05-21T18:41:47.243Z,7.33
2019-05-21T18:44:18.267Z,7.17
2019-05-21T18:46:47.797Z,7.62
2019-05-21T18:49:17.353Z,7.35
2019-05-21T18:51:46.902Z,8.65
2019-05-21T18:54:16.629Z,8.18
2019-05-21T18:56:45.165Z,7.55
2019-05-21T18:59:13.972Z,8.08
2019-05-21T19:01:42.504Z,8.13
2019-05-21T19:04:11.058Z,8.80
2019-05-21T19:06:40.203Z,8.58
2019-05-21T19:09:09.339Z,9.20
2019-05-21T19:11:37.929Z,9.68
2019-05-21T19:14:06.663Z,10.50
2019-05-21T19:16:35.217Z,13.25
2019-05-21T19:19:03.810Z,10.08
2019-05-21T19:21:33.672Z,12.30
2019-05-21T19:24:03.851Z,11.90
2019-05-21T19:26:32.323Z,13.38
2019-05-21T19:29:01.063Z,14.98
2019-05-21T19:31:31.096Z,15.08
2019-05-21T19:34:01.250Z,14.93
2019-05-21T19:36:30.871Z,15.50
2019-05-21T19:39:01.085Z,16.62
2019-05-21T19:41:32.475Z,17.02
2019-05-21T19:44:01.459Z,16.30
2019-05-21T19:46:30.181Z,15.75
2019-05-21T19:48:58.767Z,15.93
2019-05-21T19:51:28.353Z,15.83
2019-05-21T19:53:56.903Z,16.02
2019-05-21T19:56:26.722Z,16.77
2019-05-21T19:58:55.696Z,16.02
2019-05-21T20:01:27.203Z,15.83
2019-05-21T20:03:56.999Z,16.60
2019-05-21T20:06:26.181Z,15.90
2019-05-21T20:08:55.507Z,15.83
2019-05-21T20:11:25.814Z,17.50
2019-05-21T20:13:55.894Z,18.85
2019-05-21T20:16:25.686Z,22.75
2019-05-21T20:18:56.176Z,23.27
2019-05-21T20:21:25.421Z,22.50
2019-05-21T20:23:54.484Z,24.37
2019-05-21T20:26:24.887Z,25.52
2019-05-21T20:28:58.083Z,27.90
2019-05-21T20:31:30.023Z,29.12
2019-05-21T20:33:59.038Z,29.75
2019-05-21T20:36:29.432Z,31.67
2019-05-21T20:39:00.393Z,30.52
2019-05-21T20:41:30.733Z,34.27
2019-05-21T20:44:01.236Z,34.23
2019-05-21T20:46:29.854Z,36.17
2019-05-21T20:48:58.479Z,36.10
2019-05-21T20:51:27.426Z,35.52
2019-05-21T20:53:56.249Z,35.63
2019-05-21T20:56:24.846Z,34.75
2019-05-21T20:58:53.440Z,35.88
2019-05-21T21:01:22.040Z,36.03
2019-05-21T21:03:50.908Z,34.40
2019-05-21T21:06:34.219Z,34.80
2019-05-21T21:08:49.906Z,35.03
2019-05-21T21:11:18.937Z,33.28
2019-05-21T21:13:48.430Z,34.65
2019-05-21T21:16:19.168Z,32.50
2019-05-21T21:18:48.796Z,32.40
2019-05-21T21:21:17.651Z,32.20
2019-05-21T21:23:46.699Z,29.32
2019-05-21T21:26:16.009Z,28.05
2019-05-21T21:28:44.721Z,23.87
2019-05-21T21:31:13.333Z,24.47
2019-05-21T21:33:42.334Z,21.60
2019-05-21T21:36:11.171Z,21.07
2019-05-21T21:38:40.146Z,19.48
2019-05-21T21:41:10.063Z,20.15
2019-05-21T21:43:39.325Z,19.35
2019-05-21T21:46:08.075Z,19.00
2019-05-21T21:48:37.287Z,21.30
2019-05-21T21:51:06.325Z,21.77
2019-05-21T21:53:35.783Z,22.07
2019-05-21T21:56:04.566Z,21.57
2019-05-21T21:58:33.148Z,22.80
2019-05-21T22:01:27.246Z,22.73
2019-05-21T22:03:59.625Z,23.18
2019-05-21T22:06:30.117Z,24.07
2019-05-21T22:08:59.637Z,22.80
2019-05-21T22:11:28.210Z,24.82
2019-05-21T22:13:57.184Z,23.02
2019-05-21T22:16:25.909Z,23.05
2019-05-21T22:18:54.805Z,83.97
2019-05-21T22:21:24.027Z,22.25
2019-05-21T22:23:52.899Z,21.97
2019-05-21T22:26:22.829Z,22.32
2019-05-21T22:28:51.480Z,21.30
2019-05-21T22:31:20.057Z,20.57
2019-05-21T22:33:48.666Z,20.30
2019-05-21T22:36:17.426Z,18.30
2019-05-21T22:38:45.988Z,20.57
2019-05-21T22:41:14.598Z,20.12
2019-05-21T22:43:43.335Z,21.67
2019-05-21T22:46:11.861Z,23.67
2019-05-21T22:48:40.410Z,23.65
2019-05-21T22:51:09.128Z,23.92
2019-05-21T22:53:37.642Z,22.30
2019-05-21T22:56:06.196Z,24.80
2019-05-21T22:58:34.781Z,25.08
2019-05-21T23:01:05.084Z,26.42
2019-05-21T23:03:33.687Z,27.98
2019-05-21T23:06:02.232Z,27.82
2019-05-21T23:08:30.774Z,30.25
2019-05-21T23:10:59.471Z,29.85
2019-05-21T23:13:28.048Z,30.65
2019-05-21T23:15:58.695Z,29.67
2019-05-21T23:18:27.679Z,27.95
2019-05-21T23:20:57.199Z,27.25
2019-05-21T23:23:26.891Z,29.63
2019-05-21T23:25:58.205Z,28.07
2019-05-21T23:28:27.044Z,25.35
2019-05-21T23:30:55.627Z,25.30
2019-05-21T23:33:25.460Z,25.77
2019-05-21T23:35:54.081Z,25.27
2019-05-21T23:38:23.455Z,28.17
2019-05-21T23:40:52.265Z,26.07
2019-05-21T23:43:21.226Z,26.85
2019-05-21T23:45:50.274Z,29.65
2019-05-21T23:48:19.555Z,30.00
2019-05-21T23:50:48.530Z,29.65
2019-05-21T23:53:17.218Z,31.80
2019-05-21T23:55:46.534Z,32.08
2019-05-21T23:58:15.244Z,30.05
